Time,TemperatureF,DewpointF,PressureIn,WindDirection,WindDirectionDegrees,WindSpeedMPH,WindSpeedGustMPH,Humidity,HourlyPrecipIn,Conditions,Clouds,dailyrainin,SoftwareType,DateUTC
2013-03-27 00:00:00,-15.8,-23.0,30.14,SSW,201,1.0,1.0,69,0.00,,,0.00,Wunderground v.1.15,2013-03-27 08:00:00,
2013-03-27 00:10:00,-16.6,-24.0,30.14,SSW,201,0.0,1.0,68,0.00,,,0.00,Wunderground v.1.15,2013-03-27 08:10:00,
2013-03-27 00:15:00,-16.9,-24.6,30.15,SSW,201,0.0,1.0,67,0.00,,,0.00,Wunderground v.1.15,2013-03-27 08:15:00,
2013-03-27 00:25:00,-17.2,-24.9,30.15,SSW,201,1.0,2.0,67,0.00,,,0.00,Wunderground v.1.15,2013-03-27 08:25:00,
2013-03-27 00:30:00,-17.2,-24.6,30.15,SSW,201,1.0,2.0,68,0.00,,,0.00,Wunderground v.1.15,2013-03-27 08:30:00,
2013-03-27 00:40:00,-16.9,-24.3,30.15,SSW,201,1.0,1.0,68,0.00,,,0.00,Wunderground v.1.15,2013-03-27 08:40:00,
2013-03-27 00:45:00,-17.2,-24.6,30.15,SSW,201,0.0,1.0,68,0.00,,,0.00,Wunderground v.1.15,2013-03-27 08:45:00,
2013-03-27 00:50:00,-17.8,-25.7,30.15,SSW,201,1.0,1.0,66,0.00,,,0.00,Wunderground v.1.15,2013-03-27 08:50:00,
2013-03-27 01:00:00,-17.8,-25.2,30.15,SSW,201,1.0,1.0,68,0.00,,,0.00,Wunderground v.1.15,2013-03-27 09:00:00,
2013-03-27 01:05:00,-18.1,-26.0,30.15,SSW,201,0.0,1.0,66,0.00,,,0.00,Wunderground v.1.15,2013-03-27 09:05:00,
2013-03-27 01:15:00,-19.3,-27.2,30.15,SSW,201,0.0,0.0,66,0.00,,,0.00,Wunderground v.1.15,2013-03-27 09:15:00,
2013-03-27 01:25:00,-19.0,-26.3,30.15,SSW,201,0.0,0.0,68,0.00,,,0.00,Wunderground v.1.15,2013-03-27 09:25:00,
2013-03-27 01:35:00,-19.0,-26.3,30.15,SSW,201,0.0,0.0,68,0.00,,,0.00,Wunderground v.1.15,2013-03-27 09:35:00,
2013-03-27 01:40:00,-18.7,-25.8,30.15,SSW,201,0.0,0.0,69,0.00,,,0.00,Wunderground v.1.15,2013-03-27 09:40:00,
2013-03-27 01:45:00,-18.7,-26.0,30.15,SSW,201,0.0,0.0,68,0.00,,,0.00,Wunderground v.1.15,2013-03-27 09:45:00,
2013-03-27 01:50:00,-18.7,-26.0,30.15,SSW,201,0.0,0.0,68,0.00,,,0.00,Wunderground v.1.15,2013-03-27 09:50:00,
2013-03-27 02:00:00,-19.0,-26.1,30.15,SSW,201,0.0,0.0,69,0.00,,,0.00,Wunderground v.1.15,2013-03-27 10:00:00,
2013-03-27 02:10:00,-19.3,-26.6,30.15,SSW,201,1.0,1.0,68,0.00,,,0.00,Wunderground v.1.15,2013-03-27 10:10:00,
2013-03-27 02:20:00,-19.0,-26.3,30.15,SSW,201,0.0,0.0,68,0.00,,,0.00,Wunderground v.1.15,2013-03-27 10:20:00,
2013-03-27 02:30:00,-18.7,-26.0,30.15,SSW,201,0.0,0.0,68,0.00,,,0.00,Wunderground v.1.15,2013-03-27 10:30:00,
2013-03-27 02:35:00,-18.4,-25.5,30.15,SSW,201,0.0,0.0,69,0.00,,,0.00,Wunderground v.1.15,2013-03-27 10:35:00,
2013-03-27 02:45:00,-17.2,-24.1,30.15,SSW,201,1.0,1.0,70,0.00,,,0.00,Wunderground v.1.15,2013-03-27 10:45:00,
2013-03-27 02:55:00,-16.9,-24.0,30.15,SSW,201,0.0,1.0,69,0.00,,,0.00,Wunderground v.1.15,2013-03-27 10:55:00,
2013-03-27 03:00:00,-16.9,-24.3,30.14,SSW,201,0.0,1.0,68,0.00,,,0.00,Wunderground v.1.15,2013-03-27 11:00:00,
2013-03-27 03:10:00,-16.1,-23.3,30.14,SSW,201,1.0,3.0,69,0.00,,,0.00,Wunderground v.1.15,2013-03-27 11:10:00,
2013-03-27 03:20:00,-15.3,-22.5,30.14,NNW,345,2.0,3.0,69,0.00,,,0.00,Wunderground v.1.15,2013-03-27 11:20:00,
2013-03-27 03:30:00,-15.3,-22.8,30.14,North,359,3.0,3.0,68,0.00,,,0.00,Wunderground v.1.15,2013-03-27 11:30:00,
2013-03-27 03:35:00,-15.3,-22.8,30.14,North,1,3.0,5.0,68,0.00,,,0.00,Wunderground v.1.15,2013-03-27 11:35:00,
2013-03-27 03:45:00,-15.8,-23.5,30.14,North,2,3.0,3.0,67,0.00,,,0.00,Wunderground v.1.15,2013-03-27 11:45:00,
2013-03-27 03:50:00,-15.8,-23.3,30.14,North,2,2.0,3.0,68,0.00,,,0.00,Wunderground v.1.15,2013-03-27 11:50:00,
2013-03-27 04:00:00,-15.8,-23.3,30.14,North,2,3.0,3.0,68,0.00,,,0.00,Wunderground v.1.15,2013-03-27 12:00:00,
2013-03-27 04:10:00,-15.8,-23.5,30.14,North,11,3.0,3.0,67,0.00,,,0.00,Wunderground v.1.15,2013-03-27 12:10:00,
2013-03-27 04:20:00,-16.1,-23.8,30.13,NNE,12,3.0,3.0,67,0.00,,,0.00,Wunderground v.1.15,2013-03-27 12:20:00,
2013-03-27 04:25:00,-17.2,-25.2,30.13,NNE,12,2.0,3.0,66,0.00,,,0.00,Wunderground v.1.15,2013-03-27 12:25:00,
2013-03-27 04:35:00,-18.1,-25.7,30.14,NNE,13,2.0,2.0,67,0.00,,,0.00,Wunderground v.1.15,2013-03-27 12:35:00,
2013-03-27 04:45:00,-16.9,-24.0,30.14,NNE,13,2.0,3.0,69,0.00,,,0.00,Wunderground v.1.15,2013-03-27 12:45:00,
2013-03-27 04:55:00,-17.2,-24.6,30.14,NNE,13,2.0,2.0,68,0.00,,,0.00,Wunderground v.1.15,2013-03-27 12:55:00,
2013-03-27 05:00:00,-17.5,-25.2,30.14,NNE,15,1.0,1.0,67,0.00,,,0.00,Wunderground v.1.15,2013-03-27 13:00:00,
2013-03-27 05:10:00,-18.4,-26.0,30.14,NNE,15,0.0,0.0,67,0.00,,,0.00,Wunderground v.1.15,2013-03-27 13:10:00,
2013-03-27 05:15:00,-18.4,-26.0,30.14,NNE,15,0.0,0.0,67,0.00,,,0.00,Wunderground v.1.15,2013-03-27 13:15:00,
2013-03-27 05:25:00,-18.1,-25.5,30.14,NNE,15,1.0,1.0,68,0.00,,,0.00,Wunderground v.1.15,2013-03-27 13:25:00,
2013-03-27 05:35:00,-18.1,-25.7,30.14,NNE,15,1.0,2.0,67,0.00,,,0.00,Wunderground v.1.15,2013-03-27 13:35:00,
2013-03-27 05:45:00,-17.8,-25.2,30.14,NNE,15,2.0,3.0,68,0.00,,,0.00,Wunderground v.1.15,2013-03-27 13:45:00,
2013-03-27 05:55:00,-18.4,-25.8,30.14,NNE,15,2.0,5.0,68,0.00,,,0.00,Wunderground v.1.15,2013-03-27 13:55:00,
2013-03-27 06:00:00,-17.8,-25.2,30.14,NNE,15,4.0,5.0,68,0.00,,,0.00,Wunderground v.1.15,2013-03-27 14:00:00,
2013-03-27 06:10:00,-18.1,-25.7,30.14,NNE,16,5.0,5.0,67,0.00,,,0.00,Wunderground v.1.15,2013-03-27 14:10:00,
2013-03-27 06:20:00,-18.7,-26.3,30.13,NNE,16,4.0,5.0,67,0.00,,,0.00,Wunderground v.1.15,2013-03-27 14:20:00,
2013-03-27 06:30:00,-18.1,-25.5,30.13,NNE,16,5.0,6.0,68,0.00,,,0.00,Wunderground v.1.15,2013-03-27 14:30:00,
2013-03-27 06:40:00,-17.5,-25.2,30.13,NNE,15,6.0,6.0,67,0.00,,,0.00,Wunderground v.1.15,2013-03-27 14:40:00,
2013-03-27 06:50:00,-18.4,-26.3,30.13,NNE,15,6.0,6.0,66,0.00,,,0.00,Wunderground v.1.15,2013-03-27 14:50:00,
2013-03-27 06:55:00,-18.4,-25.8,30.13,NNE,15,5.0,6.0,68,0.00,,,0.00,Wunderground v.1.15,2013-03-27 14:55:00,
2013-03-27 07:05:00,-18.7,-26.6,30.13,NNE,13,6.0,8.0,66,0.00,,,0.00,Wunderground v.1.15,2013-03-27 15:05:00,
2013-03-27 07:15:00,-18.4,-25.8,30.13,NNE,13,4.0,5.0,68,0.00,,,0.00,Wunderground v.1.15,2013-03-27 15:15:00,
2013-03-27 07:20:00,-19.6,-27.5,30.13,NNE,15,4.0,4.0,66,0.00,,,0.00,Wunderground v.1.15,2013-03-27 15:20:00,
2013-03-27 07:30:00,-20.5,-28.3,30.13,NNE,15,1.0,1.0,66,0.00,,,0.00,Wunderground v.1.15,2013-03-27 15:30:00,
2013-03-27 07:40:00,-20.5,-27.8,30.13,NNE,15,0.0,1.0,68,0.00,,,0.00,Wunderground v.1.15,2013-03-27 15:40:00,
2013-03-27 07:45:00,-19.9,-26.9,30.13,NNE,15,0.0,1.0,69,0.00,,,0.00,Wunderground v.1.15,2013-03-27 15:45:00,
2013-03-27 07:55:00,-20.2,-27.8,30.13,NNE,15,0.0,0.0,67,0.00,,,0.00,Wunderground v.1.15,2013-03-27 15:55:00,
2013-03-27 08:05:00,-21.7,-29.5,30.13,NNE,15,0.0,0.0,66,0.00,,,0.00,Wunderground v.1.15,2013-03-27 16:05:00,
2013-03-27 08:10:00,-22.0,-29.8,30.13,NNE,15,0.0,0.0,66,0.00,,,0.00,Wunderground v.1.15,2013-03-27 16:10:00,
2013-03-27 08:20:00,-21.1,-28.4,30.13,NNE,15,0.0,0.0,68,0.00,,,0.00,Wunderground v.1.15,2013-03-27 16:20:00,
2013-03-27 08:30:00,-19.9,-27.2,30.13,NNE,15,3.0,5.0,68,0.00,,,0.00,Wunderground v.1.15,2013-03-27 16:30:00,
2013-03-27 08:40:00,-19.9,-27.2,30.13,NNE,15,4.0,4.0,68,0.00,,,0.00,Wunderground v.1.15,2013-03-27 16:40:00,
2013-03-27 08:50:00,-19.3,-26.9,30.13,NNE,18,3.0,3.0,67,0.00,,,0.00,Wunderground v.1.15,2013-03-27 16:50:00,
2013-03-27 08:55:00,-19.3,-26.6,30.13,NNE,19,3.0,3.0,68,0.00,,,0.00,Wunderground v.1.15,2013-03-27 16:55:00,
2013-03-27 09:05:00,-19.0,-26.6,30.13,NNE,19,4.0,5.0,67,0.00,,,0.00,Wunderground v.1.15,2013-03-27 17:05:00,
2013-03-27 09:15:00,-19.9,-27.8,30.12,NNE,19,5.0,6.0,66,0.00,,,0.00,Wunderground v.1.15,2013-03-27 17:15:00,
2013-03-27 09:20:00,-20.5,-28.3,30.12,NNE,19,5.0,5.0,66,0.00,,,0.00,Wunderground v.1.15,2013-03-27 17:20:00,
2013-03-27 09:30:00,-20.8,-28.6,30.12,NNE,19,4.0,5.0,66,0.00,,,0.00,Wunderground v.1.15,2013-03-27 17:30:00,
2013-03-27 09:40:00,-19.9,-27.2,30.12,NNE,22,6.0,6.0,68,0.00,,,0.00,Wunderground v.1.15,2013-03-27 17:40:00,
2013-03-27 09:50:00,-17.8,-25.2,30.11,NNE,22,6.0,6.0,68,0.00,,,0.00,Wunderground v.1.15,2013-03-27 17:50:00,
2013-03-27 10:00:00,-16.6,-24.3,30.11,NNE,22,6.0,6.0,67,0.00,,,0.00,Wunderground v.1.15,2013-03-27 18:00:00,
2013-03-27 10:10:00,-16.4,-24.1,30.11,NNE,22,5.0,5.0,67,0.00,,,0.00,Wunderground v.1.15,2013-03-27 18:10:00,
2013-03-27 10:15:00,-16.1,-24.1,30.11,NNE,22,5.0,5.0,66,0.00,,,0.00,Wunderground v.1.15,2013-03-27 18:15:00,
2013-03-27 10:25:00,-16.1,-24.4,30.11,NNE,22,4.0,5.0,65,0.00,,,0.00,Wunderground v.1.15,2013-03-27 18:25:00,
2013-03-27 10:35:00,-16.6,-24.9,30.10,NNE,22,3.0,3.0,65,0.00,,,0.00,Wunderground v.1.15,2013-03-27 18:35:00,
2013-03-27 10:45:00,-15.3,-23.3,30.10,NNE,22,2.0,2.0,66,0.00,,,0.00,Wunderground v.1.15,2013-03-27 18:45:00,
2013-03-27 10:50:00,-14.3,-22.4,30.10,NNE,22,1.0,1.0,66,0.00,,,0.00,Wunderground v.1.15,2013-03-27 18:50:00,
2013-03-27 11:00:00,-14.3,-23.0,30.10,NNE,23,1.0,3.0,64,0.00,,,0.00,Wunderground v.1.15,2013-03-27 19:00:00,
2013-03-27 11:10:00,-15.3,-23.9,30.10,NNE,23,3.0,6.0,64,0.00,,,0.00,Wunderground v.1.15,2013-03-27 19:10:00,
2013-03-27 11:20:00,-14.0,-22.7,30.10,NNE,23,5.0,5.0,64,0.00,,,0.00,Wunderground v.1.15,2013-03-27 19:20:00,
2013-03-27 11:25:00,-13.5,-22.2,30.10,NNE,25,2.0,5.0,64,0.00,,,0.00,Wunderground v.1.15,2013-03-27 19:25:00,
2013-03-27 11:35:00,-13.3,-22.6,30.10,NNE,25,4.0,5.0,62,0.00,,,0.00,Wunderground v.1.15,2013-03-27 19:35:00,
2013-03-27 11:40:00,-13.0,-22.3,30.10,NNE,25,4.0,4.0,62,0.00,,,0.00,Wunderground v.1.15,2013-03-27 19:40:00,
2013-03-27 11:45:00,-12.8,-22.1,30.10,NNE,28,4.0,5.0,62,0.00,,,0.00,Wunderground v.1.15,2013-03-27 19:45:00,
2013-03-27 11:55:00,-12.0,-21.7,30.10,NNE,28,5.0,6.0,61,0.00,,,0.00,Wunderground v.1.15,2013-03-27 19:55:00,
2013-03-27 12:05:00,-10.7,-20.5,30.10,NNE,28,4.0,5.0,61,0.00,,,0.00,Wunderground v.1.15,2013-03-27 20:05:00,
2013-03-27 12:10:00,-10.5,-20.6,30.10,NNE,28,5.0,5.0,60,0.00,,,0.00,Wunderground v.1.15,2013-03-27 20:10:00,
2013-03-27 12:20:00,-9.6,-19.7,30.10,NNE,28,3.0,3.0,60,0.00,,,0.00,Wunderground v.1.15,2013-03-27 20:20:00,
2013-03-27 12:30:00,-8.9,-19.4,30.10,NNE,29,3.0,3.0,59,0.00,,,0.00,Wunderground v.1.15,2013-03-27 20:30:00,
2013-03-27 12:40:00,-8.4,-18.9,30.10,NNE,29,4.0,5.0,59,0.00,,,0.00,Wunderground v.1.15,2013-03-27 20:40:00,
2013-03-27 12:50:00,-7.7,-18.2,30.10,NNE,29,4.0,4.0,59,0.00,,,0.00,Wunderground v.1.15,2013-03-27 20:50:00,
2013-03-27 13:00:00,-7.0,-17.6,30.10,NNE,29,3.0,3.0,59,0.00,,,0.00,Wunderground v.1.15,2013-03-27 21:00:00,
2013-03-27 13:10:00,-6.5,-17.4,30.10,NNE,29,4.0,5.0,58,0.00,,,0.00,Wunderground v.1.15,2013-03-27 21:10:00,
2013-03-27 13:20:00,-6.1,-17.1,30.10,NNE,29,4.0,6.0,58,0.00,,,0.00,Wunderground v.1.15,2013-03-27 21:20:00,
2013-03-27 13:30:00,-5.2,-15.9,30.09,NNE,29,3.0,5.0,59,0.00,,,0.00,Wunderground v.1.15,2013-03-27 21:30:00,
2013-03-27 13:40:00,-4.6,-15.6,30.09,NNE,29,2.0,2.0,58,0.00,,,0.00,Wunderground v.1.15,2013-03-27 21:40:00,
2013-03-27 13:45:00,-3.7,-14.8,30.09,NNE,29,2.0,2.0,58,0.00,,,0.00,Wunderground v.1.15,2013-03-27 21:45:00,
2013-03-27 13:55:00,-3.3,-14.8,30.09,NNE,29,3.0,4.0,57,0.00,,,0.00,Wunderground v.1.15,2013-03-27 21:55:00,
2013-03-27 14:05:00,-2.6,-14.5,30.08,NE,54,3.0,3.0,56,0.00,,,0.00,Wunderground v.1.15,2013-03-27 22:05:00,
2013-03-27 14:10:00,-2.0,-14.2,30.08,NE,49,3.0,4.0,55,0.00,,,0.00,Wunderground v.1.15,2013-03-27 22:10:00,
2013-03-27 14:20:00,-1.2,-13.1,30.08,NE,52,3.0,3.0,56,0.00,,,0.00,Wunderground v.1.15,2013-03-27 22:20:00,
2013-03-27 14:30:00,-1.4,-13.7,30.08,NE,49,3.0,4.0,55,0.00,,,0.00,Wunderground v.1.15,2013-03-27 22:30:00,
2013-03-27 14:40:00,-1.2,-13.5,30.08,NE,50,2.0,2.0,55,0.00,,,0.00,Wunderground v.1.15,2013-03-27 22:40:00,
2013-03-27 14:45:00,-1.2,-13.9,30.08,NE,53,2.0,2.0,54,0.00,,,0.00,Wunderground v.1.15,2013-03-27 22:45:00,
2013-03-27 14:55:00,-1.4,-13.7,30.08,NE,53,2.0,3.0,55,0.00,,,0.00,Wunderground v.1.15,2013-03-27 22:55:00,
2013-03-27 15:05:00,-0.6,-13.3,30.08,NE,53,2.0,2.0,54,0.00,,,0.00,Wunderground v.1.15,2013-03-27 23:05:00,
2013-03-27 15:15:00,-0.6,-13.3,30.08,ENE,57,2.0,5.0,54,0.00,,,0.00,Wunderground v.1.15,2013-03-27 23:15:00,
2013-03-27 15:25:00,-1.0,-14.0,30.08,ESE,116,5.0,8.0,53,0.00,,,0.00,Wunderground v.1.15,2013-03-27 23:25:00,
2013-03-27 15:35:00,-1.8,-13.3,30.07,East,101,8.0,8.0,57,0.00,,,0.00,Wunderground v.1.15,2013-03-27 23:35:00,
2013-03-27 15:45:00,-1.2,-13.5,30.07,SE,131,5.0,7.0,55,0.00,,,0.00,Wunderground v.1.15,2013-03-27 23:45:00,
2013-03-27 15:55:00,-1.8,-13.0,30.07,ESE,107,8.0,10.0,58,0.00,,,0.00,Wunderground v.1.15,2013-03-27 23:55:00,
2013-03-27 16:05:00,-0.6,-12.9,30.06,ESE,122,3.0,11.0,55,0.00,,,0.00,Wunderground v.1.15,2013-03-28 00:05:00,
2013-03-27 16:15:00,-0.8,-12.8,30.05,ESE,116,6.0,11.0,56,0.00,,,0.00,Wunderground v.1.15,2013-03-28 00:15:00,
2013-03-27 16:20:00,-1.0,-13.3,30.05,SE,126,5.0,6.0,55,0.00,,,0.00,Wunderground v.1.15,2013-03-28 00:20:00,
2013-03-27 16:30:00,-1.0,-12.2,30.05,East,98,7.0,7.0,58,0.00,,,0.00,Wunderground v.1.15,2013-03-28 00:30:00,
2013-03-27 16:40:00,-0.4,-12.0,30.05,ESE,104,5.0,5.0,57,0.00,,,0.00,Wunderground v.1.15,2013-03-28 00:40:00,
2013-03-27 16:50:00,0.5,-11.5,30.04,East,100,3.0,3.0,56,0.00,,,0.00,Wunderground v.1.15,2013-03-28 00:50:00,
2013-03-27 16:55:00,-0.2,-12.6,30.04,SE,125,5.0,7.0,55,0.00,,,0.00,Wunderground v.1.15,2013-03-28 00:55:00,
2013-03-27 17:05:00,-0.4,-12.4,30.04,ESE,116,6.0,7.0,56,0.00,,,0.00,Wunderground v.1.15,2013-03-28 01:05:00,
2013-03-27 17:15:00,-0.4,-12.0,30.04,ESE,112,6.0,6.0,57,0.00,,,0.00,Wunderground v.1.15,2013-03-28 01:15:00,
2013-03-27 17:25:00,-0.2,-12.2,30.04,ESE,102,5.0,5.0,56,0.00,,,0.00,Wunderground v.1.15,2013-03-28 01:25:00,
2013-03-27 17:35:00,-0.8,-12.4,30.03,ESE,109,5.0,6.0,57,0.00,,,0.00,Wunderground v.1.15,2013-03-28 01:35:00,
2013-03-27 17:40:00,-0.4,-12.4,30.03,ESE,104,6.0,7.0,56,0.00,,,0.00,Wunderground v.1.15,2013-03-28 01:40:00,
2013-03-27 17:50:00,-0.6,-11.9,30.02,East,94,7.0,7.0,58,0.00,,,0.00,Wunderground v.1.15,2013-03-28 01:50:00,
2013-03-27 18:00:00,-0.8,-13.1,30.02,East,101,6.0,6.0,55,0.00,,,0.00,Wunderground v.1.15,2013-03-28 02:00:00,
2013-03-27 18:10:00,-1.2,-12.4,30.02,ESE,105,10.0,10.0,58,0.00,,,0.00,Wunderground v.1.15,2013-03-28 02:10:00,
2013-03-27 18:20:00,-1.0,-12.6,30.02,East,92,9.0,9.0,57,0.00,,,0.00,Wunderground v.1.15,2013-03-28 02:20:00,
2013-03-27 18:30:00,-1.0,-12.2,30.02,ESE,104,5.0,5.0,58,0.00,,,0.00,Wunderground v.1.15,2013-03-28 02:30:00,
2013-03-27 18:40:00,-1.4,-12.6,30.02,East,95,8.0,14.0,58,0.00,,,0.00,Wunderground v.1.15,2013-03-28 02:40:00,
2013-03-27 18:45:00,-1.6,-12.8,30.01,East,84,9.0,14.0,58,0.00,,,0.00,Wunderground v.1.15,2013-03-28 02:45:00,
2013-03-27 18:55:00,-0.8,-12.1,30.01,ESE,105,5.0,12.0,58,0.00,,,0.00,Wunderground v.1.15,2013-03-28 02:55:00,
2013-03-27 19:00:00,-1.2,-12.4,30.01,East,94,7.0,10.0,58,0.00,,,0.00,Wunderground v.1.15,2013-03-28 03:00:00,
2013-03-27 19:10:00,-1.4,-12.6,30.01,ESE,119,8.0,11.0,58,0.00,,,0.00,Wunderground v.1.15,2013-03-28 03:10:00,
2013-03-27 19:20:00,-1.0,-12.2,30.00,East,101,7.0,7.0,58,0.00,,,0.00,Wunderground v.1.15,2013-03-28 03:20:00,
2013-03-27 19:30:00,-0.8,-12.4,30.00,ESE,102,3.0,3.0,57,0.00,,,0.00,Wunderground v.1.15,2013-03-28 03:30:00,
2013-03-27 19:40:00,-0.2,-12.2,30.00,ESE,102,2.0,2.0,56,0.00,,,0.00,Wunderground v.1.15,2013-03-28 03:40:00,
2013-03-27 19:50:00,-0.2,-12.2,29.99,ESE,102,1.0,1.0,56,0.00,,,0.00,Wunderground v.1.15,2013-03-28 03:50:00,
2013-03-27 19:55:00,-0.2,-12.2,29.99,ESE,102,1.0,1.0,56,0.00,,,0.00,Wunderground v.1.15,2013-03-28 03:55:00,
2013-03-27 20:04:00,-0.2,-12.2,29.99,East,101,0.0,1.0,56,0.00,,,0.00,Wunderground v.1.15,2013-03-28 04:04:00,
2013-03-27 20:10:00,0.0,-12.0,29.99,East,101,0.0,0.0,56,0.00,,,0.00,Wunderground v.1.15,2013-03-28 04:10:00,
2013-03-27 20:15:00,0.0,-12.0,29.99,East,101,0.0,0.0,56,0.00,,,0.00,Wunderground v.1.15,2013-03-28 04:15:00,
2013-03-27 20:19:00,-0.4,-12.0,29.99,East,101,0.0,0.0,57,0.00,,,0.00,Wunderground v.1.15,2013-03-28 04:19:00,
2013-03-27 20:25:00,-0.2,-11.8,29.99,East,101,0.0,0.0,57,0.00,,,0.00,Wunderground v.1.15,2013-03-28 04:25:00,
2013-03-27 20:30:00,-0.4,-12.4,29.98,East,101,0.0,0.0,56,0.00,,,0.00,Wunderground v.1.15,2013-03-28 04:30:00,
2013-03-27 20:40:00,-2.4,-13.6,29.98,East,101,1.0,2.0,58,0.00,,,0.00,Wunderground v.1.15,2013-03-28 04:40:00,
2013-03-27 20:50:00,-2.8,-13.6,29.98,East,101,1.0,2.0,59,0.00,,,0.00,Wunderground v.1.15,2013-03-28 04:50:00,
2013-03-27 21:00:00,-3.5,-14.3,29.98,East,101,1.0,1.0,59,0.00,,,0.00,Wunderground v.1.15,2013-03-28 05:00:00,
2013-03-27 21:10:00,-6.3,-16.3,29.98,NE,39,2.0,2.0,61,0.00,,,0.00,Wunderground v.1.15,2013-03-28 05:10:00,
2013-03-27 21:15:00,-6.5,-16.1,29.97,NE,39,1.0,2.0,62,0.00,,,0.00,Wunderground v.1.15,2013-03-28 05:15:00,
2013-03-27 21:25:00,-7.5,-16.8,29.97,NE,39,1.0,1.0,63,0.00,,,0.00,Wunderground v.1.15,2013-03-28 05:25:00,
2013-03-27 21:35:00,-7.5,-16.5,29.97,NE,39,2.0,2.0,64,0.00,,,0.00,Wunderground v.1.15,2013-03-28 05:35:00,
2013-03-27 21:45:00,-8.6,-17.8,29.96,NE,37,1.0,3.0,63,0.00,,,0.00,Wunderground v.1.15,2013-03-28 05:45:00,
2013-03-27 21:55:00,-8.9,-17.5,29.96,NE,37,1.0,1.0,65,0.00,,,0.00,Wunderground v.1.15,2013-03-28 05:55:00,
2013-03-27 22:05:00,-8.6,-17.2,29.96,NE,37,1.0,1.0,65,0.00,,,0.00,Wunderground v.1.15,2013-03-28 06:05:00,
2013-03-27 22:14:00,-9.6,-18.5,29.96,NE,37,2.0,2.0,64,0.00,,,0.00,Wunderground v.1.15,2013-03-28 06:14:00,
2013-03-27 22:20:00,-9.8,-18.4,29.96,NE,36,2.0,2.0,65,0.00,,,0.00,Wunderground v.1.15,2013-03-28 06:20:00,
2013-03-27 22:25:00,-9.6,-17.9,29.96,NE,36,2.0,2.0,66,0.00,,,0.00,Wunderground v.1.15,2013-03-28 06:25:00,
2013-03-27 22:35:00,-10.0,-18.6,29.95,NE,36,1.0,2.0,65,0.00,,,0.00,Wunderground v.1.15,2013-03-28 06:35:00,
2013-03-27 22:45:00,-11.2,-19.4,29.94,NE,36,1.0,1.0,66,0.00,,,0.00,Wunderground v.1.15,2013-03-28 06:45:00,
2013-03-27 22:50:00,-11.5,-19.7,29.94,NE,36,1.0,1.0,66,0.00,,,0.00,Wunderground v.1.15,2013-03-28 06:50:00,
2013-03-27 23:00:00,-11.7,-19.6,29.94,NE,37,0.0,0.0,67,0.00,,,0.00,Wunderground v.1.15,2013-03-28 07:00:00,
2013-03-27 23:10:00,-11.0,-18.4,29.94,NE,36,0.0,1.0,69,0.00,,,0.00,Wunderground v.1.15,2013-03-28 07:10:00,
2013-03-27 23:20:00,-10.3,-18.5,29.93,NE,35,1.0,1.0,66,0.00,,,0.00,Wunderground v.1.15,2013-03-28 07:20:00,
2013-03-27 23:30:00,-9.6,-17.6,29.93,NE,35,2.0,3.0,67,0.00,,,0.00,Wunderground v.1.15,2013-03-28 07:30:00,
2013-03-27 23:40:00,-10.5,-18.4,29.93,North,8,4.0,6.0,67,0.00,,,0.00,Wunderground v.1.15,2013-03-28 07:40:00,
2013-03-27 23:49:00,-9.8,-18.1,29.93,North,8,2.0,2.0,66,0.00,,,0.00,Wunderground v.1.15,2013-03-28 07:49:00,
2013-03-27 23:55:00,-10.3,-18.5,29.93,North,8,1.0,2.0,66,0.00,,,0.00,Wunderground v.1.15,2013-03-28 07:55:00,